This demonstration page uses our WeatherBlox Daily Observations layout. Learn more.

41.55636, -103.73856

Hourly Observations for December 2, 2016

Temp ( °F °C ) Dew Point ( °F °C ) Humidity (%) Winds ( mph kmh ) Pressure ( in mb ) Visibility ( mi km ) Precip ( " mm )
12:53 am 00:53 Cloudy 22 -5.6 15 -9.4 75 75 NW 7 11 30.15 1021 10 16.0934 0 0
1:53 am 01:53 Clear 19 -7.2 14 -10 81 81 NW 6 9 30.17 1022 10 16.0934 0 0
2:53 am 02:53 Partly Cloudy 19 -7.2 13 -10.6 77 77 Calm 30.2 1023 10 16.0934 0 0
3:53 am 03:53 Partly Cloudy 18 -7.8 13 -10.6 81 81 NNW 3 6 30.22 1023 10 16.0934 0 0
4:53 am 04:53 Mostly Clear 16 -8.9 11 -11.7 80 80 NNW 6 9 30.26 1025 10 16.0934 0 0
5:53 am 05:53 Clear 18 -7.8 13 -10.6 81 81 N 8 13 30.28 1025 10 16.0934 0 0
6:53 am 06:53 Clear 13 -10.6 10 -12.2 88 88 WNW 6 9 30.32 1027 10 16.0934 0 0
7:53 am 07:53 Sunny 18 -7.8 13 -10.6 81 81 NW 6 9 30.32 1027 10 16.0934 0 0
8:53 am 08:53 Sunny 26 -3.3 19 -7.2 75 75 WNW 7 11 30.32 1027 10 16.0934 0 0
9:53 am 09:53 Sunny 33 0.6 23 -5 66 66 WNW 8 13 30.33 1027 10 16.0934 0 0
10:53 am 10:53 Sunny 37 2.8 24 -4.4 59 59 WNW 9 15 30.31 1027 10 16.0934 0 0
11:53 am 11:53 Sunny 39 3.9 24 -4.4 55 55 W 5 7 30.29 1026 10 16.0934 0 0
12:53 pm 12:53 Sunny 40 4.4 23 -5 51 51 W 6 9 30.27 1025 10 16.0934 0 0
1:53 pm 13:53 Sunny 40 4.4 20 -6.7 45 45 WSW 6 9 30.27 1025 10 16.0934 0 0
2:53 pm 14:53 Cloudy 41 5 19 -7.2 41 41 Calm 30.27 1025 10 16.0934 0 0
3:53 pm 15:53 Sunny 36 2.2 19 -7.2 50 50 S 5 7 30.29 1026 10 16.0934 0 0
4:53 pm 16:53 Cloudy 33 0.6 18 -7.8 54 54 SSE 3 6 30.31 1026 10 16.0934 0 0
5:53 pm 17:53 Partly Cloudy 31 -0.6 19 -7.2 61 61 S 3 6 30.31 1026 10 16.0934 0 0
6:53 pm 18:53 Clear 22 -5.6 14 -10 71 71 Calm 30.35 1028 10 16.0934 0 0
7:53 pm 19:53 Mostly Cloudy 24 -4.4 15 -9.4 68 68 SSE 3 6 30.33 1027 10 16.0934 0 0

Powered by AerisWeather